sensor_id;sensor_type;location;lat;lon;timestamp;temperature;humidity
11989;DHT22;6054;50.966;7.094;2022-11-03T00:01:11;19.30;44.00
11989;DHT22;6054;50.966;7.094;2022-11-03T00:03:37;19.20;43.30
11989;DHT22;6054;50.966;7.094;2022-11-03T00:06:06;19.20;43.10
11989;DHT22;6054;50.966;7.094;2022-11-03T00:08:35;19.20;43.30
11989;DHT22;6054;50.966;7.094;2022-11-03T00:11:08;19.10;43.50
11989;DHT22;6054;50.966;7.094;2022-11-03T00:13:36;19.20;43.70
11989;DHT22;6054;50.966;7.094;2022-11-03T00:16:04;19.20;43.70
11989;DHT22;6054;50.966;7.094;2022-11-03T00:18:32;19.20;43.70
11989;DHT22;6054;50.966;7.094;2022-11-03T00:21:00;19.20;43.70
11989;DHT22;6054;50.966;7.094;2022-11-03T00:23:31;19.40;44.00
11989;DHT22;6054;50.966;7.094;2022-11-03T00:26:08;19.20;44.00
11989;DHT22;6054;50.966;7.094;2022-11-03T00:28:36;19.20;44.10
11989;DHT22;6054;50.966;7.094;2022-11-03T00:31:06;19.20;43.90
11989;DHT22;6054;50.966;7.094;2022-11-03T00:33:33;19.20;44.20
11989;DHT22;6054;50.966;7.094;2022-11-03T00:36:00;19.20;44.00
11989;DHT22;6054;50.966;7.094;2022-11-03T00:38:29;19.20;43.90
11989;DHT22;6054;50.966;7.094;2022-11-03T00:40:57;19.20;44.00
11989;DHT22;6054;50.966;7.094;2022-11-03T00:43:24;19.20;44.50
11989;DHT22;6054;50.966;7.094;2022-11-03T00:45:52;19.20;44.20
11989;DHT22;6054;50.966;7.094;2022-11-03T00:48:19;19.40;43.80
11989;DHT22;6054;50.966;7.094;2022-11-03T00:51:00;19.20;44.30
11989;DHT22;6054;50.966;7.094;2022-11-03T00:53:27;19.20;44.60
11989;DHT22;6054;50.966;7.094;2022-11-03T00:55:55;19.20;43.80
11989;DHT22;6054;50.966;7.094;2022-11-03T00:58:22;19.20;43.60
11989;DHT22;6054;50.966;7.094;2022-11-03T01:00:49;19.20;43.50
11989;DHT22;6054;50.966;7.094;2022-11-03T01:03:15;19.20;44.30
11989;DHT22;6054;50.966;7.094;2022-11-03T01:05:43;19.20;44.30
11989;DHT22;6054;50.966;7.094;2022-11-03T01:08:31;19.20;44.70
11989;DHT22;6054;50.966;7.094;2022-11-03T01:11:06;19.10;44.50
11989;DHT22;6054;50.966;7.094;2022-11-03T01:13:50;19.10;45.00
11989;DHT22;6054;50.966;7.094;2022-11-03T01:16:17;19.10;44.80
11989;DHT22;6054;50.966;7.094;2022-11-03T01:18:43;19.10;45.00
11989;DHT22;6054;50.966;7.094;2022-11-03T01:21:10;19.10;44.70
11989;DHT22;6054;50.966;7.094;2022-11-03T01:23:37;19.10;44.60
11989;DHT22;6054;50.966;7.094;2022-11-03T01:26:06;19.10;45.00
11989;DHT22;6054;50.966;7.094;2022-11-03T01:28:33;19.10;45.40
11989;DHT22;6054;50.966;7.094;2022-11-03T01:31:04;19.10;45.10
11989;DHT22;6054;50.966;7.094;2022-11-03T01:33:31;19.10;45.40
11989;DHT22;6054;50.966;7.094;2022-11-03T01:35:58;19.10;45.90
11989;DHT22;6054;50.966;7.094;2022-11-03T01:38:29;19.10;45.50
11989;DHT22;6054;50.966;7.094;2022-11-03T01:40:56;19.00;45.60
11989;DHT22;6054;50.966;7.094;2022-11-03T01:43:24;19.30;45.10
11989;DHT22;6054;50.966;7.094;2022-11-03T01:45:59;19.10;45.40
11989;DHT22;6054;50.966;7.094;2022-11-03T01:48:28;19.00;46.00
11989;DHT22;6054;50.966;7.094;2022-11-03T01:50:55;19.00;45.90
11989;DHT22;6054;50.966;7.094;2022-11-03T01:53:22;19.00;45.40
11989;DHT22;6054;50.966;7.094;2022-11-03T01:55:49;19.00;45.80
11989;DHT22;6054;50.966;7.094;2022-11-03T01:58:18;19.20;45.60
11989;DHT22;6054;50.966;7.094;2022-11-03T02:00:49;19.00;45.90
11989;DHT22;6054;50.966;7.094;2022-11-03T02:03:17;19.10;46.00
11989;DHT22;6054;50.966;7.094;2022-11-03T02:05:45;19.20;45.70
11989;DHT22;6054;50.966;7.094;2022-11-03T02:08:15;19.00;46.20
11989;DHT22;6054;50.966;7.094;2022-11-03T02:10:45;19.00;46.30
11989;DHT22;6054;50.966;7.094;2022-11-03T02:13:17;18.90;46.30
11989;DHT22;6054;50.966;7.094;2022-11-03T02:15:47;18.90;46.40
11989;DHT22;6054;50.966;7.094;2022-11-03T02:18:15;19.00;46.40
11989;DHT22;6054;50.966;7.094;2022-11-03T02:20:43;18.90;46.50
11989;DHT22;6054;50.966;7.094;2022-11-03T02:23:25;19.00;46.60
11989;DHT22;6054;50.966;7.094;2022-11-03T02:25:56;18.90;46.80
11989;DHT22;6054;50.966;7.094;2022-11-03T02:28:26;18.90;46.70
11989;DHT22;6054;50.966;7.094;2022-11-03T02:31:01;18.90;46.80
11989;DHT22;6054;50.966;7.094;2022-11-03T02:33:36;18.90;46.90
11989;DHT22;6054;50.966;7.094;2022-11-03T02:36:12;18.90;47.00
11989;DHT22;6054;50.966;7.094;2022-11-03T02:38:45;18.90;46.90
11989;DHT22;6054;50.966;7.094;2022-11-03T02:41:15;18.90;47.20
11989;DHT22;6054;50.966;7.094;2022-11-03T02:43:43;19.10;47.20
11989;DHT22;6054;50.966;7.094;2022-11-03T02:46:13;18.90;47.00
11989;DHT22;6054;50.966;7.094;2022-11-03T02:48:41;18.90;47.10
11989;DHT22;6054;50.966;7.094;2022-11-03T02:51:08;18.90;46.90
11989;DHT22;6054;50.966;7.094;2022-11-03T02:53:40;19.00;46.80
11989;DHT22;6054;50.966;7.094;2022-11-03T02:56:15;18.90;47.10
11989;DHT22;6054;50.966;7.094;2022-11-03T02:58:48;18.90;47.10
11989;DHT22;6054;50.966;7.094;2022-11-03T03:01:21;18.90;47.40
11989;DHT22;6054;50.966;7.094;2022-11-03T03:03:52;19.20;47.60
11989;DHT22;6054;50.966;7.094;2022-11-03T03:06:22;19.00;47.40
11989;DHT22;6054;50.966;7.094;2022-11-03T03:08:52;19.00;47.50
11989;DHT22;6054;50.966;7.094;2022-11-03T03:11:22;18.90;47.40
11989;DHT22;6054;50.966;7.094;2022-11-03T03:14:05;18.90;47.40
11989;DHT22;6054;50.966;7.094;2022-11-03T03:16:37;18.90;47.50
11989;DHT22;6054;50.966;7.094;2022-11-03T03:19:15;19.00;47.70
11989;DHT22;6054;50.966;7.094;2022-11-03T03:21:45;19.00;47.70
11989;DHT22;6054;50.966;7.094;2022-11-03T03:24:18;18.90;47.50
11989;DHT22;6054;50.966;7.094;2022-11-03T03:26:49;19.00;47.60
11989;DHT22;6054;50.966;7.094;2022-11-03T03:29:19;19.00;47.70
11989;DHT22;6054;50.966;7.094;2022-11-03T03:31:52;18.90;47.50
11989;DHT22;6054;50.966;7.094;2022-11-03T03:34:21;19.00;47.70
11989;DHT22;6054;50.966;7.094;2022-11-03T03:36:50;19.00;47.80
11989;DHT22;6054;50.966;7.094;2022-11-03T03:39:19;18.90;47.80
11989;DHT22;6054;50.966;7.094;2022-11-03T03:41:50;18.90;47.80
11989;DHT22;6054;50.966;7.094;2022-11-03T03:44:17;18.90;47.80
11989;DHT22;6054;50.966;7.094;2022-11-03T03:46:50;18.90;47.90
11989;DHT22;6054;50.966;7.094;2022-11-03T03:49:17;18.90;48.00
11989;DHT22;6054;50.966;7.094;2022-11-03T03:51:45;18.90;47.50
11989;DHT22;6054;50.966;7.094;2022-11-03T03:54:13;19.10;48.20
11989;DHT22;6054;50.966;7.094;2022-11-03T03:56:42;18.90;47.70
11989;DHT22;6054;50.966;7.094;2022-11-03T03:59:12;18.90;48.10
11989;DHT22;6054;50.966;7.094;2022-11-03T04:01:39;18.90;47.90
11989;DHT22;6054;50.966;7.094;2022-11-03T04:04:06;18.90;47.60
11989;DHT22;6054;50.966;7.094;2022-11-03T04:06:33;18.90;47.90
11989;DHT22;6054;50.966;7.094;2022-11-03T04:08:59;18.90;47.90
11989;DHT22;6054;50.966;7.094;2022-11-03T04:11:26;18.90;48.00
11989;DHT22;6054;50.966;7.094;2022-11-03T04:14:12;18.90;48.10
11989;DHT22;6054;50.966;7.094;2022-11-03T04:16:56;18.90;48.30
11989;DHT22;6054;50.966;7.094;2022-11-03T04:19:40;18.90;48.30
11989;DHT22;6054;50.966;7.094;2022-11-03T04:22:27;18.80;48.30
11989;DHT22;6054;50.966;7.094;2022-11-03T04:24:54;18.80;48.30
11989;DHT22;6054;50.966;7.094;2022-11-03T04:27:27;18.80;48.40
11989;DHT22;6054;50.966;7.094;2022-11-03T04:29:58;18.80;48.60
11989;DHT22;6054;50.966;7.094;2022-11-03T04:32:27;18.80;48.70
11989;DHT22;6054;50.966;7.094;2022-11-03T04:34:54;18.80;48.30
11989;DHT22;6054;50.966;7.094;2022-11-03T04:37:21;18.80;48.40
11989;DHT22;6054;50.966;7.094;2022-11-03T04:39:48;18.80;48.10
11989;DHT22;6054;50.966;7.094;2022-11-03T04:42:17;18.80;48.30
11989;DHT22;6054;50.966;7.094;2022-11-03T04:44:45;18.80;48.70
11989;DHT22;6054;50.966;7.094;2022-11-03T04:47:14;18.80;48.40
11989;DHT22;6054;50.966;7.094;2022-11-03T04:49:42;19.00;48.90
11989;DHT22;6054;50.966;7.094;2022-11-03T04:52:13;18.80;48.70
11989;DHT22;6054;50.966;7.094;2022-11-03T04:54:41;18.70;48.80
11989;DHT22;6054;50.966;7.094;2022-11-03T04:57:11;19.00;49.00
11989;DHT22;6054;50.966;7.094;2022-11-03T04:59:38;18.70;48.80
11989;DHT22;6054;50.966;7.094;2022-11-03T05:02:09;18.70;48.90
11989;DHT22;6054;50.966;7.094;2022-11-03T05:04:38;18.70;48.90
11989;DHT22;6054;50.966;7.094;2022-11-03T05:07:19;18.70;48.60
11989;DHT22;6054;50.966;7.094;2022-11-03T05:09:46;18.90;49.20
11989;DHT22;6054;50.966;7.094;2022-11-03T05:12:13;18.70;48.50
11989;DHT22;6054;50.966;7.094;2022-11-03T05:14:40;18.70;48.60
11989;DHT22;6054;50.966;7.094;2022-11-03T05:17:17;18.80;48.60
11989;DHT22;6054;50.966;7.094;2022-11-03T05:19:48;18.80;49.10
11989;DHT22;6054;50.966;7.094;2022-11-03T05:22:17;18.80;49.10
11989;DHT22;6054;50.966;7.094;2022-11-03T05:24:45;18.80;49.00
11989;DHT22;6054;50.966;7.094;2022-11-03T05:27:18;18.80;48.60
11989;DHT22;6054;50.966;7.094;2022-11-03T05:29:46;18.80;49.10
11989;DHT22;6054;50.966;7.094;2022-11-03T05:32:17;18.80;49.00
11989;DHT22;6054;50.966;7.094;2022-11-03T05:34:47;18.70;49.10
11989;DHT22;6054;50.966;7.094;2022-11-03T05:37:23;18.80;49.10
11989;DHT22;6054;50.966;7.094;2022-11-03T05:39:51;18.70;49.20
11989;DHT22;6054;50.966;7.094;2022-11-03T05:42:30;18.80;49.20
11989;DHT22;6054;50.966;7.094;2022-11-03T05:45:00;18.80;49.30
11989;DHT22;6054;50.966;7.094;2022-11-03T05:47:31;18.70;49.20
11989;DHT22;6054;50.966;7.094;2022-11-03T05:50:10;18.80;49.30
11989;DHT22;6054;50.966;7.094;2022-11-03T05:52:40;18.80;49.40
11989;DHT22;6054;50.966;7.094;2022-11-03T05:55:25;18.80;49.40
11989;DHT22;6054;50.966;7.094;2022-11-03T05:57:55;18.80;49.40
11989;DHT22;6054;50.966;7.094;2022-11-03T06:00:31;18.80;49.50
11989;DHT22;6054;50.966;7.094;2022-11-03T06:02:59;18.80;49.40
11989;DHT22;6054;50.966;7.094;2022-11-03T06:05:28;18.80;49.30
11989;DHT22;6054;50.966;7.094;2022-11-03T06:07:59;18.90;49.50
11989;DHT22;6054;50.966;7.094;2022-11-03T06:10:28;18.80;49.40
11989;DHT22;6054;50.966;7.094;2022-11-03T06:13:00;18.80;49.30
11989;DHT22;6054;50.966;7.094;2022-11-03T06:15:30;18.80;49.30
11989;DHT22;6054;50.966;7.094;2022-11-03T06:17:58;18.90;49.40
11989;DHT22;6054;50.966;7.094;2022-11-03T06:20:25;18.90;49.10
11989;DHT22;6054;50.966;7.094;2022-11-03T06:22:55;18.90;49.30
11989;DHT22;6054;50.966;7.094;2022-11-03T06:25:26;19.10;48.90
11989;DHT22;6054;50.966;7.094;2022-11-03T06:27:55;18.90;49.30
11989;DHT22;6054;50.966;7.094;2022-11-03T06:30:25;19.00;49.30
11989;DHT22;6054;50.966;7.094;2022-11-03T06:32:53;18.90;49.10
11989;DHT22;6054;50.966;7.094;2022-11-03T06:35:20;19.20;49.50
11989;DHT22;6054;50.966;7.094;2022-11-03T06:37:47;19.00;48.90
11989;DHT22;6054;50.966;7.094;2022-11-03T06:40:33;19.00;48.50
11989;DHT22;6054;50.966;7.094;2022-11-03T06:43:09;19.00;49.30
11989;DHT22;6054;50.966;7.094;2022-11-03T06:45:37;18.90;49.10
11989;DHT22;6054;50.966;7.094;2022-11-03T06:48:09;18.90;49.10
11989;DHT22;6054;50.966;7.094;2022-11-03T06:50:38;18.90;49.20
11989;DHT22;6054;50.966;7.094;2022-11-03T06:53:05;18.90;48.70
11989;DHT22;6054;50.966;7.094;2022-11-03T06:55:33;18.90;48.90
11989;DHT22;6054;50.966;7.094;2022-11-03T06:58:06;18.90;49.90
11989;DHT22;6054;50.966;7.094;2022-11-03T07:00:38;18.90;49.20
11989;DHT22;6054;50.966;7.094;2022-11-03T07:03:08;18.90;49.20
11989;DHT22;6054;50.966;7.094;2022-11-03T07:05:36;18.90;49.20
11989;DHT22;6054;50.966;7.094;2022-11-03T07:08:13;18.90;49.10
11989;DHT22;6054;50.966;7.094;2022-11-03T07:10:44;18.90;49.30
11989;DHT22;6054;50.966;7.094;2022-11-03T07:13:13;19.00;48.90
11989;DHT22;6054;50.966;7.094;2022-11-03T07:15:41;19.10;49.30
11989;DHT22;6054;50.966;7.094;2022-11-03T07:18:15;18.90;49.10
11989;DHT22;6054;50.966;7.094;2022-11-03T07:20:44;18.90;49.30
11989;DHT22;6054;50.966;7.094;2022-11-03T07:23:15;19.00;48.90
11989;DHT22;6054;50.966;7.094;2022-11-03T07:25:49;19.00;49.30
11989;DHT22;6054;50.966;7.094;2022-11-03T07:28:17;19.00;49.40
11989;DHT22;6054;50.966;7.094;2022-11-03T07:30:44;19.00;49.00
11989;DHT22;6054;50.966;7.094;2022-11-03T07:33:13;19.00;48.80
11989;DHT22;6054;50.966;7.094;2022-11-03T07:35:43;19.00;49.30
11989;DHT22;6054;50.966;7.094;2022-11-03T07:38:13;19.00;49.40
11989;DHT22;6054;50.966;7.094;2022-11-03T07:40:41;19.00;49.40
11989;DHT22;6054;50.966;7.094;2022-11-03T07:43:14;19.00;48.70
11989;DHT22;6054;50.966;7.094;2022-11-03T07:45:42;19.10;49.60
11989;DHT22;6054;50.966;7.094;2022-11-03T07:48:20;19.10;49.60
11989;DHT22;6054;50.966;7.094;2022-11-03T07:50:48;19.10;49.70
11989;DHT22;6054;50.966;7.094;2022-11-03T07:53:19;19.10;49.70
11989;DHT22;6054;50.966;7.094;2022-11-03T07:55:47;19.20;49.80
11989;DHT22;6054;50.966;7.094;2022-11-03T07:58:21;19.20;49.70
11989;DHT22;6054;50.966;7.094;2022-11-03T08:00:52;19.30;49.80
11989;DHT22;6054;50.966;7.094;2022-11-03T08:03:26;19.40;49.80
11989;DHT22;6054;50.966;7.094;2022-11-03T08:05:53;19.50;49.80
11989;DHT22;6054;50.966;7.094;2022-11-03T08:08:20;19.60;49.40
11989;DHT22;6054;50.966;7.094;2022-11-03T08:10:47;19.60;49.00
11989;DHT22;6054;50.966;7.094;2022-11-03T08:13:13;19.70;49.10
11989;DHT22;6054;50.966;7.094;2022-11-03T08:15:41;19.70;49.00
11989;DHT22;6054;50.966;7.094;2022-11-03T08:18:08;19.80;48.80
11989;DHT22;6054;50.966;7.094;2022-11-03T08:20:35;19.70;48.20
11989;DHT22;6054;50.966;7.094;2022-11-03T08:23:02;19.80;48.50
11989;DHT22;6054;50.966;7.094;2022-11-03T08:25:29;19.80;48.70
11989;DHT22;6054;50.966;7.094;2022-11-03T08:27:55;20.00;47.70
11989;DHT22;6054;50.966;7.094;2022-11-03T08:30:22;20.10;48.50
11989;DHT22;6054;50.966;7.094;2022-11-03T08:32:50;19.90;47.80
11989;DHT22;6054;50.966;7.094;2022-11-03T08:35:17;20.00;47.60
11989;DHT22;6054;50.966;7.094;2022-11-03T08:37:44;20.00;48.00
11989;DHT22;6054;50.966;7.094;2022-11-03T08:40:11;20.00;48.40
11989;DHT22;6054;50.966;7.094;2022-11-03T08:45:04;20.00;48.80
11989;DHT22;6054;50.966;7.094;2022-11-03T08:47:31;20.00;48.80
11989;DHT22;6054;50.966;7.094;2022-11-03T08:49:59;20.00;48.50
11989;DHT22;6054;50.966;7.094;2022-11-03T08:52:26;20.00;48.30
11989;DHT22;6054;50.966;7.094;2022-11-03T08:54:53;20.10;48.30
11989;DHT22;6054;50.966;7.094;2022-11-03T08:57:19;20.00;48.30
11989;DHT22;6054;50.966;7.094;2022-11-03T08:59:46;20.10;48.50
11989;DHT22;6054;50.966;7.094;2022-11-03T09:02:13;20.10;48.30
11989;DHT22;6054;50.966;7.094;2022-11-03T09:04:40;20.40;48.60
11989;DHT22;6054;50.966;7.094;2022-11-03T09:07:08;20.30;48.40
11989;DHT22;6054;50.966;7.094;2022-11-03T09:09:35;20.30;48.40
11989;DHT22;6054;50.966;7.094;2022-11-03T09:12:01;20.40;48.20
11989;DHT22;6054;50.966;7.094;2022-11-03T09:14:28;20.40;47.80
11989;DHT22;6054;50.966;7.094;2022-11-03T09:16:55;20.40;47.70
11989;DHT22;6054;50.966;7.094;2022-11-03T09:19:22;20.40;47.60
11989;DHT22;6054;50.966;7.094;2022-11-03T09:21:49;20.40;47.60
11989;DHT22;6054;50.966;7.094;2022-11-03T09:24:18;20.40;47.40
11989;DHT22;6054;50.966;7.094;2022-11-03T09:26:44;20.80;47.90
11989;DHT22;6054;50.966;7.094;2022-11-03T09:29:11;20.50;47.60
11989;DHT22;6054;50.966;7.094;2022-11-03T09:31:38;20.80;47.70
11989;DHT22;6054;50.966;7.094;2022-11-03T09:34:05;20.50;47.50
11989;DHT22;6054;50.966;7.094;2022-11-03T09:36:31;20.60;47.80
11989;DHT22;6054;50.966;7.094;2022-11-03T09:38:58;20.60;47.70
11989;DHT22;6054;50.966;7.094;2022-11-03T09:41:26;20.60;47.10
11989;DHT22;6054;50.966;7.094;2022-11-03T09:43:55;20.60;47.10
11989;DHT22;6054;50.966;7.094;2022-11-03T09:46:24;20.60;47.70
11989;DHT22;6054;50.966;7.094;2022-11-03T09:48:52;20.70;47.70
11989;DHT22;6054;50.966;7.094;2022-11-03T09:51:22;20.80;47.80
11989;DHT22;6054;50.966;7.094;2022-11-03T09:53:49;20.80;47.50
11989;DHT22;6054;50.966;7.094;2022-11-03T09:56:17;20.90;47.20
11989;DHT22;6054;50.966;7.094;2022-11-03T09:58:46;20.90;47.50
11989;DHT22;6054;50.966;7.094;2022-11-03T10:01:12;20.90;47.20
11989;DHT22;6054;50.966;7.094;2022-11-03T10:03:39;21.10;47.20
11989;DHT22;6054;50.966;7.094;2022-11-03T10:06:06;20.90;47.00
11989;DHT22;6054;50.966;7.094;2022-11-03T10:08:34;20.90;46.70
11989;DHT22;6054;50.966;7.094;2022-11-03T10:11:05;21.00;47.00
11989;DHT22;6054;50.966;7.094;2022-11-03T10:13:35;20.90;47.00
11989;DHT22;6054;50.966;7.094;2022-11-03T10:16:06;21.00;46.90
11989;DHT22;6054;50.966;7.094;2022-11-03T10:18:34;20.90;46.80
11989;DHT22;6054;50.966;7.094;2022-11-03T10:21:03;20.90;46.80
11989;DHT22;6054;50.966;7.094;2022-11-03T10:23:30;21.00;46.90
11989;DHT22;6054;50.966;7.094;2022-11-03T10:26:07;21.00;46.50
11989;DHT22;6054;50.966;7.094;2022-11-03T10:28:34;21.20;46.90
11989;DHT22;6054;50.966;7.094;2022-11-03T10:31:04;21.00;46.10
11989;DHT22;6054;50.966;7.094;2022-11-03T10:33:34;20.90;46.40
11989;DHT22;6054;50.966;7.094;2022-11-03T10:36:02;20.90;46.50
11989;DHT22;6054;50.966;7.094;2022-11-03T10:38:31;20.90;46.60
11989;DHT22;6054;50.966;7.094;2022-11-03T10:41:12;21.00;46.70
11989;DHT22;6054;50.966;7.094;2022-11-03T10:43:40;21.00;46.70
11989;DHT22;6054;50.966;7.094;2022-11-03T10:46:15;21.00;46.60
11989;DHT22;6054;50.966;7.094;2022-11-03T10:48:43;21.00;46.60
11989;DHT22;6054;50.966;7.094;2022-11-03T10:51:11;21.00;46.80
11989;DHT22;6054;50.966;7.094;2022-11-03T10:53:38;21.10;46.60
11989;DHT22;6054;50.966;7.094;2022-11-03T10:56:07;21.00;46.40
11989;DHT22;6054;50.966;7.094;2022-11-03T10:58:33;21.10;46.20
11989;DHT22;6054;50.966;7.094;2022-11-03T11:01:02;21.00;46.00
11989;DHT22;6054;50.966;7.094;2022-11-03T11:03:40;21.00;46.30
11989;DHT22;6054;50.966;7.094;2022-11-03T11:06:17;21.00;46.20
11989;DHT22;6054;50.966;7.094;2022-11-03T11:08:44;21.20;46.50
11989;DHT22;6054;50.966;7.094;2022-11-03T11:11:14;21.00;45.40
11989;DHT22;6054;50.966;7.094;2022-11-03T11:13:41;20.90;46.20
11989;DHT22;6054;50.966;7.094;2022-11-03T11:16:47;21.10;46.40
11989;DHT22;6054;50.966;7.094;2022-11-03T11:19:15;20.90;46.60
11989;DHT22;6054;50.966;7.094;2022-11-03T11:24:59;21.00;46.60
11989;DHT22;6054;50.966;7.094;2022-11-03T11:27:54;21.00;46.60
11989;DHT22;6054;50.966;7.094;2022-11-03T11:33:31;21.00;46.50
11989;DHT22;6054;50.966;7.094;2022-11-03T11:36:05;21.00;46.40
11989;DHT22;6054;50.966;7.094;2022-11-03T11:39:09;21.10;46.60
11989;DHT22;6054;50.966;7.094;2022-11-03T11:42:08;21.10;46.60
11989;DHT22;6054;50.966;7.094;2022-11-03T11:44:52;21.10;46.60
11989;DHT22;6054;50.966;7.094;2022-11-03T11:47:30;21.10;46.50
11989;DHT22;6054;50.966;7.094;2022-11-03T11:50:15;21.10;46.40
11989;DHT22;6054;50.966;7.094;2022-11-03T11:52:45;21.10;46.30
11989;DHT22;6054;50.966;7.094;2022-11-03T11:55:17;21.10;46.20
11989;DHT22;6054;50.966;7.094;2022-11-03T11:57:45;21.20;46.40
11989;DHT22;6054;50.966;7.094;2022-11-03T12:00:19;21.20;46.10
11989;DHT22;6054;50.966;7.094;2022-11-03T12:02:50;21.20;46.10
11989;DHT22;6054;50.966;7.094;2022-11-03T12:05:19;21.20;46.10
11989;DHT22;6054;50.966;7.094;2022-11-03T12:07:49;21.20;46.00
11989;DHT22;6054;50.966;7.094;2022-11-03T12:10:18;21.20;45.80
11989;DHT22;6054;50.966;7.094;2022-11-03T12:12:45;21.20;46.00
11989;DHT22;6054;50.966;7.094;2022-11-03T12:18:32;21.20;46.00
11989;DHT22;6054;50.966;7.094;2022-11-03T12:20:59;21.20;45.90
11989;DHT22;6054;50.966;7.094;2022-11-03T12:23:39;21.30;46.00
11989;DHT22;6054;50.966;7.094;2022-11-03T12:26:14;21.10;46.00
11989;DHT22;6054;50.966;7.094;2022-11-03T12:28:41;21.10;46.10
11989;DHT22;6054;50.966;7.094;2022-11-03T12:31:08;21.00;45.70
11989;DHT22;6054;50.966;7.094;2022-11-03T12:33:35;21.10;45.80
11989;DHT22;6054;50.966;7.094;2022-11-03T12:36:02;21.10;45.60
11989;DHT22;6054;50.966;7.094;2022-11-03T12:38:28;21.10;45.70
11989;DHT22;6054;50.966;7.094;2022-11-03T12:40:56;21.10;45.60
11989;DHT22;6054;50.966;7.094;2022-11-03T12:43:43;21.10;45.00
11989;DHT22;6054;50.966;7.094;2022-11-03T12:46:10;21.00;45.10
11989;DHT22;6054;50.966;7.094;2022-11-03T12:48:37;21.30;45.50
11989;DHT22;6054;50.966;7.094;2022-11-03T12:51:09;21.30;45.40
11989;DHT22;6054;50.966;7.094;2022-11-03T12:53:36;21.30;46.10
11989;DHT22;6054;50.966;7.094;2022-11-03T12:56:04;21.10;45.10
11989;DHT22;6054;50.966;7.094;2022-11-03T12:58:31;21.10;45.40
11989;DHT22;6054;50.966;7.094;2022-11-03T13:00:58;21.40;45.10
11989;DHT22;6054;50.966;7.094;2022-11-03T13:03:25;21.30;45.40
11989;DHT22;6054;50.966;7.094;2022-11-03T13:05:52;21.00;45.20
11989;DHT22;6054;50.966;7.094;2022-11-03T13:08:19;21.10;44.80
11989;DHT22;6054;50.966;7.094;2022-11-03T13:10:46;21.10;45.30
11989;DHT22;6054;50.966;7.094;2022-11-03T13:13:14;21.30;45.60
11989;DHT22;6054;50.966;7.094;2022-11-03T13:15:40;21.20;45.50
11989;DHT22;6054;50.966;7.094;2022-11-03T13:18:07;21.00;44.70
11989;DHT22;6054;50.966;7.094;2022-11-03T13:20:34;21.00;45.40
11989;DHT22;6054;50.966;7.094;2022-11-03T13:23:01;20.90;45.20
11989;DHT22;6054;50.966;7.094;2022-11-03T13:25:28;21.10;45.40
11989;DHT22;6054;50.966;7.094;2022-11-03T13:27:55;20.90;45.60
11989;DHT22;6054;50.966;7.094;2022-11-03T13:30:25;20.90;45.50
11989;DHT22;6054;50.966;7.094;2022-11-03T13:32:52;20.90;45.80
11989;DHT22;6054;50.966;7.094;2022-11-03T13:35:19;21.00;45.40
11989;DHT22;6054;50.966;7.094;2022-11-03T13:37:46;21.00;45.40
11989;DHT22;6054;50.966;7.094;2022-11-03T13:40:13;21.00;45.60
11989;DHT22;6054;50.966;7.094;2022-11-03T13:42:40;21.10;46.40
11989;DHT22;6054;50.966;7.094;2022-11-03T13:45:08;21.30;45.70
11989;DHT22;6054;50.966;7.094;2022-11-03T13:47:36;21.00;45.50
11989;DHT22;6054;50.966;7.094;2022-11-03T13:50:03;21.30;45.50
11989;DHT22;6054;50.966;7.094;2022-11-03T13:52:30;21.00;45.60
11989;DHT22;6054;50.966;7.094;2022-11-03T13:54:57;21.00;45.40
11989;DHT22;6054;50.966;7.094;2022-11-03T13:57:24;21.30;45.70
11989;DHT22;6054;50.966;7.094;2022-11-03T13:59:50;21.00;45.40
11989;DHT22;6054;50.966;7.094;2022-11-03T14:02:17;21.10;45.50
11989;DHT22;6054;50.966;7.094;2022-11-03T14:04:45;21.10;45.20
11989;DHT22;6054;50.966;7.094;2022-11-03T14:07:12;21.10;44.70
11989;DHT22;6054;50.966;7.094;2022-11-03T14:09:39;21.10;44.60
11989;DHT22;6054;50.966;7.094;2022-11-03T14:12:06;21.10;44.80
11989;DHT22;6054;50.966;7.094;2022-11-03T14:14:50;21.10;45.30
11989;DHT22;6054;50.966;7.094;2022-11-03T14:17:17;21.10;45.30
11989;DHT22;6054;50.966;7.094;2022-11-03T14:19:45;21.10;45.90
11989;DHT22;6054;50.966;7.094;2022-11-03T14:22:12;21.10;45.10
11989;DHT22;6054;50.966;7.094;2022-11-03T14:24:38;21.10;44.50
11989;DHT22;6054;50.966;7.094;2022-11-03T14:27:05;21.10;45.00
11989;DHT22;6054;50.966;7.094;2022-11-03T14:29:32;21.10;44.60
11989;DHT22;6054;50.966;7.094;2022-11-03T14:31:59;21.10;44.70
11989;DHT22;6054;50.966;7.094;2022-11-03T14:34:25;21.10;45.10
11989;DHT22;6054;50.966;7.094;2022-11-03T14:36:53;21.10;45.00
11989;DHT22;6054;50.966;7.094;2022-11-03T14:39:20;21.20;45.10
11989;DHT22;6054;50.966;7.094;2022-11-03T14:41:47;21.10;45.10
11989;DHT22;6054;50.966;7.094;2022-11-03T14:44:28;21.10;45.40
11989;DHT22;6054;50.966;7.094;2022-11-03T14:46:54;21.10;45.60
11989;DHT22;6054;50.966;7.094;2022-11-03T14:49:22;21.20;46.00
11989;DHT22;6054;50.966;7.094;2022-11-03T14:51:48;21.10;45.70
11989;DHT22;6054;50.966;7.094;2022-11-03T14:54:17;21.10;46.80
11989;DHT22;6054;50.966;7.094;2022-11-03T14:56:44;21.10;45.00
11989;DHT22;6054;50.966;7.094;2022-11-03T14:59:10;21.00;46.10
11989;DHT22;6054;50.966;7.094;2022-11-03T15:01:37;20.90;46.30
11989;DHT22;6054;50.966;7.094;2022-11-03T15:04:04;20.90;46.50
11989;DHT22;6054;50.966;7.094;2022-11-03T15:06:32;20.90;46.40
11989;DHT22;6054;50.966;7.094;2022-11-03T15:08:59;20.90;46.50
11989;DHT22;6054;50.966;7.094;2022-11-03T15:11:27;20.90;46.60
11989;DHT22;6054;50.966;7.094;2022-11-03T15:13:54;20.90;46.30
11989;DHT22;6054;50.966;7.094;2022-11-03T15:16:21;20.90;46.60
11989;DHT22;6054;50.966;7.094;2022-11-03T15:18:48;20.90;47.30
11989;DHT22;6054;50.966;7.094;2022-11-03T15:21:15;20.90;47.30
11989;DHT22;6054;50.966;7.094;2022-11-03T15:23:42;21.10;47.70
11989;DHT22;6054;50.966;7.094;2022-11-03T15:26:09;20.80;47.20
11989;DHT22;6054;50.966;7.094;2022-11-03T15:28:38;20.80;47.70
11989;DHT22;6054;50.966;7.094;2022-11-03T15:31:06;20.70;48.50
11989;DHT22;6054;50.966;7.094;2022-11-03T15:33:33;20.70;48.20
11989;DHT22;6054;50.966;7.094;2022-11-03T15:36:00;20.70;48.70
11989;DHT22;6054;50.966;7.094;2022-11-03T15:38:28;20.60;48.50
11989;DHT22;6054;50.966;7.094;2022-11-03T15:40:55;20.50;49.20
11989;DHT22;6054;50.966;7.094;2022-11-03T15:43:41;20.50;49.40
11989;DHT22;6054;50.966;7.094;2022-11-03T15:46:08;20.50;49.70
11989;DHT22;6054;50.966;7.094;2022-11-03T15:48:36;20.50;49.70
11989;DHT22;6054;50.966;7.094;2022-11-03T15:51:03;20.40;49.70
11989;DHT22;6054;50.966;7.094;2022-11-03T15:53:29;20.30;50.10
11989;DHT22;6054;50.966;7.094;2022-11-03T15:55:56;20.20;50.00
11989;DHT22;6054;50.966;7.094;2022-11-03T15:58:23;20.10;51.00
11989;DHT22;6054;50.966;7.094;2022-11-03T16:00:52;20.10;50.70
11989;DHT22;6054;50.966;7.094;2022-11-03T16:03:18;20.30;51.10
11989;DHT22;6054;50.966;7.094;2022-11-03T16:05:45;20.00;51.40
11989;DHT22;6054;50.966;7.094;2022-11-03T16:08:12;20.00;51.80
11989;DHT22;6054;50.966;7.094;2022-11-03T16:10:39;20.00;51.80
11989;DHT22;6054;50.966;7.094;2022-11-03T16:13:05;20.00;52.30